createdAt,value
2023-03-18T00:01:16.130Z,13.78
2023-03-18T00:03:45.783Z,13.75
2023-03-18T00:06:18.437Z,13.77
2023-03-18T00:08:48.349Z,13.69
2023-03-18T00:11:19.218Z,13.72
2023-03-18T00:13:48.002Z,13.71
2023-03-18T00:16:16.928Z,13.67
2023-03-18T00:18:45.456Z,13.67
2023-03-18T00:21:16.840Z,13.67
2023-03-18T00:23:44.977Z,13.67
2023-03-18T00:26:13.030Z,13.63
2023-03-18T00:28:41.307Z,13.62
2023-03-18T00:31:11.729Z,13.61
2023-03-18T00:33:43.562Z,13.59
2023-03-18T00:36:13.768Z,13.57
2023-03-18T00:38:45.903Z,13.57
2023-03-18T00:41:16.013Z,13.55
2023-03-18T00:43:52.505Z,13.52
2023-03-18T00:46:24.694Z,13.51
2023-03-18T00:48:54.417Z,13.49
2023-03-18T00:51:24.469Z,13.48
2023-03-18T00:53:57.278Z,13.49
2023-03-18T00:56:27.746Z,13.46
2023-03-18T00:58:57.305Z,13.46
2023-03-18T01:01:26.740Z,13.44
2023-03-18T01:03:55.367Z,13.39
2023-03-18T01:06:26.566Z,13.42
2023-03-18T01:08:57.174Z,13.39
2023-03-18T01:11:26.570Z,13.38
2023-03-18T01:13:55.742Z,13.39
2023-03-18T01:16:24.234Z,13.37
2023-03-18T01:18:53.804Z,13.36
2023-03-18T01:21:22.702Z,13.32
2023-03-18T01:23:50.848Z,13.32
2023-03-18T01:26:20.478Z,13.31
2023-03-18T01:28:48.551Z,13.31
2023-03-18T01:31:16.842Z,13.30
2023-03-18T01:33:45.053Z,13.26
2023-03-18T01:36:13.232Z,13.25
2023-03-18T01:38:42.873Z,13.24
2023-03-18T01:41:12.161Z,13.25
2023-03-18T01:43:44.164Z,13.23
2023-03-18T01:46:40.310Z,13.16
2023-03-18T01:49:12.590Z,13.17
2023-03-18T01:51:42.811Z,13.21
2023-03-18T01:54:14.085Z,13.18
2023-03-18T01:56:44.518Z,13.15
2023-03-18T01:59:15.532Z,13.15
2023-03-18T02:01:48.803Z,13.15
2023-03-18T02:04:18.866Z,13.13
2023-03-18T02:06:46.950Z,13.12
2023-03-18T02:09:15.122Z,13.12
2023-03-18T02:11:46.832Z,13.11
2023-03-18T02:14:17.159Z,13.10
2023-03-18T02:16:51.953Z,13.08
2023-03-18T02:19:31.497Z,13.06
2023-03-18T02:22:09.739Z,13.06
2023-03-18T02:24:46.812Z,13.03
2023-03-18T02:27:19.218Z,13.03
2023-03-18T02:29:48.858Z,13.00
2023-03-18T02:32:20.257Z,13.00
2023-03-18T02:34:49.195Z,13.00
2023-03-18T02:37:17.288Z,12.99
2023-03-18T02:39:45.545Z,12.98
2023-03-18T02:42:14.888Z,12.98
2023-03-18T02:44:48.370Z,12.95
2023-03-18T02:47:22.400Z,12.94
2023-03-18T02:49:51.661Z,12.92
2023-03-18T02:52:19.847Z,12.93
2023-03-18T02:54:47.969Z,12.92
2023-03-18T02:57:15.983Z,12.90
2023-03-18T02:59:47.965Z,12.89
2023-03-18T03:02:16.710Z,12.88
2023-03-18T03:04:44.825Z,12.87
2023-03-18T03:07:13.477Z,12.83
2023-03-18T03:09:41.921Z,12.84
2023-03-18T03:12:10.276Z,12.83
2023-03-18T03:14:38.353Z,12.83
2023-03-18T03:17:07.979Z,12.80
2023-03-18T03:19:36.054Z,12.80
2023-03-18T03:22:04.221Z,12.80
2023-03-18T03:24:32.437Z,12.78
2023-03-18T03:27:00.571Z,12.77
2023-03-18T03:29:29.351Z,12.76
2023-03-18T03:31:57.512Z,12.75
2023-03-18T03:34:27.156Z,12.74
2023-03-18T03:36:55.244Z,12.72
2023-03-18T03:39:23.705Z,12.70
2023-03-18T03:41:52.914Z,12.70
2023-03-18T03:44:21.432Z,12.69
2023-03-18T03:46:49.581Z,12.69
2023-03-18T03:49:18.636Z,12.67
2023-03-18T03:51:48.234Z,12.65
2023-03-18T03:54:16.799Z,12.66
2023-03-18T03:56:44.885Z,12.64
2023-03-18T03:59:12.949Z,12.64
2023-03-18T04:01:41.300Z,12.60
2023-03-18T04:04:09.426Z,12.59
2023-03-18T04:06:37.668Z,12.59
2023-03-18T04:09:07.111Z,12.58
2023-03-18T04:11:35.101Z,12.57
2023-03-18T04:14:03.201Z,12.56
2023-03-18T04:16:31.356Z,12.53
2023-03-18T04:18:59.477Z,12.51
2023-03-18T04:21:27.522Z,12.53
2023-03-18T04:23:56.602Z,12.50
2023-03-18T04:26:26.077Z,12.48
2023-03-18T04:28:54.165Z,12.48
2023-03-18T04:31:22.749Z,12.48
2023-03-18T04:33:50.874Z,12.48
2023-03-18T04:36:18.979Z,12.45
2023-03-18T04:38:47.060Z,12.46
2023-03-18T04:41:15.485Z,12.44
2023-03-18T04:43:45.725Z,12.44
2023-03-18T04:46:13.861Z,12.41
2023-03-18T04:48:42.148Z,12.38
2023-03-18T04:51:10.335Z,12.41
2023-03-18T04:53:38.526Z,12.37
2023-03-18T04:56:08.848Z,12.38
2023-03-18T04:58:37.937Z,12.37
2023-03-18T05:01:07.450Z,12.35
2023-03-18T05:03:35.959Z,12.36
2023-03-18T05:06:04.118Z,12.33
2023-03-18T05:08:32.195Z,12.33
2023-03-18T05:11:00.277Z,12.33
2023-03-18T05:13:29.280Z,12.32
2023-03-18T05:15:57.373Z,12.26
2023-03-18T05:18:26.961Z,12.29
2023-03-18T05:20:54.988Z,12.29
2023-03-18T05:23:24.056Z,12.29
2023-03-18T05:25:52.324Z,12.26
2023-03-18T05:28:21.453Z,12.28
2023-03-18T05:30:49.755Z,12.24
2023-03-18T05:33:20.898Z,12.26
2023-03-18T05:35:51.828Z,12.25
2023-03-18T05:38:20.616Z,12.25
2023-03-18T05:40:49.119Z,12.23
2023-03-18T05:43:18.829Z,12.20
2023-03-18T05:45:46.951Z,12.20
2023-03-18T05:48:15.405Z,12.16
2023-03-18T05:50:44.292Z,12.16
2023-03-18T05:53:16.278Z,12.19
2023-03-18T05:55:45.110Z,12.19
2023-03-18T05:58:13.156Z,12.17
2023-03-18T06:00:41.631Z,12.18
2023-03-18T06:03:10.325Z,12.17
2023-03-18T06:05:38.548Z,12.16
2023-03-18T06:08:07.267Z,12.17
2023-03-18T06:10:38.907Z,12.16
2023-03-18T06:13:07.797Z,12.16
2023-03-18T06:15:35.920Z,12.15
2023-03-18T06:18:04.815Z,12.15
2023-03-18T06:20:33.665Z,12.14
2023-03-18T06:23:01.766Z,12.14
2023-03-18T06:25:30.144Z,12.15
2023-03-18T06:28:00.044Z,12.15
2023-03-18T06:30:28.249Z,12.14
2023-03-18T06:32:56.504Z,12.09
2023-03-18T06:35:26.654Z,12.10
2023-03-18T06:37:55.202Z,12.13
2023-03-18T06:40:23.988Z,12.09
2023-03-18T06:42:52.614Z,12.11
2023-03-18T06:45:22.400Z,12.10
2023-03-18T06:47:52.161Z,12.12
2023-03-18T06:50:20.656Z,12.12
2023-03-18T06:52:49.441Z,12.10
2023-03-18T06:55:17.883Z,12.12
2023-03-18T06:57:46.584Z,12.11
2023-03-18T07:00:16.137Z,12.12
2023-03-18T07:02:46.446Z,12.11
2023-03-18T07:05:14.760Z,12.10
2023-03-18T07:07:43.172Z,12.11
2023-03-18T07:10:19.207Z,12.11
2023-03-18T07:12:48.560Z,12.11
2023-03-18T07:15:17.056Z,12.12
2023-03-18T07:17:46.604Z,12.11
2023-03-18T07:20:15.453Z,12.11
2023-03-18T07:22:43.944Z,12.12
2023-03-18T07:25:13.287Z,12.12
2023-03-18T07:27:42.300Z,12.12
2023-03-18T07:30:11.590Z,12.08
2023-03-18T07:32:40.859Z,12.12
2023-03-18T07:35:14.063Z,12.12
2023-03-18T07:37:42.633Z,12.13
2023-03-18T07:40:13.124Z,12.12
2023-03-18T07:42:41.556Z,12.14
2023-03-18T07:45:11.366Z,12.13
2023-03-18T07:47:39.733Z,12.14
2023-03-18T07:50:12.334Z,12.12
2023-03-18T07:52:40.718Z,12.15
2023-03-18T07:55:10.233Z,12.14
2023-03-18T07:57:38.628Z,12.15
2023-03-18T08:00:08.613Z,12.14
2023-03-18T08:02:37.021Z,12.17
2023-03-18T08:05:06.988Z,12.16
2023-03-18T08:07:38.008Z,12.14
2023-03-18T08:10:07.217Z,12.17
2023-03-18T08:12:49.329Z,12.17
2023-03-18T08:15:20.387Z,12.18
2023-03-18T08:17:48.442Z,12.18
2023-03-18T08:20:16.692Z,12.20
2023-03-18T08:22:48.546Z,12.19
2023-03-18T08:25:17.148Z,12.19
2023-03-18T08:27:47.748Z,12.20
2023-03-18T08:30:16.594Z,12.22
2023-03-18T08:32:47.274Z,12.22
2023-03-18T08:35:15.584Z,12.24
2023-03-18T08:37:43.991Z,12.23
2023-03-18T08:40:14.495Z,12.23
2023-03-18T08:42:42.526Z,12.26
2023-03-18T08:45:12.473Z,12.27
2023-03-18T08:47:41.432Z,12.26
2023-03-18T08:50:11.116Z,12.29
2023-03-18T08:52:39.776Z,12.31
2023-03-18T08:55:09.618Z,12.31
2023-03-18T08:57:39.499Z,12.30
2023-03-18T09:00:09.026Z,12.34
2023-03-18T09:02:37.353Z,12.32
2023-03-18T09:05:06.550Z,12.34
2023-03-18T09:07:34.825Z,12.34
2023-03-18T09:10:04.458Z,12.37
2023-03-18T09:12:32.647Z,12.39
2023-03-18T09:15:03.157Z,12.40
2023-03-18T09:17:50.835Z,12.42
2023-03-18T09:20:19.825Z,12.41
2023-03-18T09:22:48.254Z,12.43
2023-03-18T09:25:16.740Z,12.45
2023-03-18T09:27:45.845Z,12.46
2023-03-18T09:30:15.819Z,12.47
2023-03-18T09:32:44.704Z,12.50
2023-03-18T09:35:14.212Z,12.50
2023-03-18T09:37:42.478Z,12.52
2023-03-18T09:40:19.729Z,12.53
2023-03-18T09:42:59.080Z,12.55
2023-03-18T09:45:32.320Z,12.59
2023-03-18T09:48:21.235Z,12.61
2023-03-18T09:51:00.146Z,12.65
2023-03-18T09:53:38.555Z,12.65
2023-03-18T09:56:11.826Z,12.70
2023-03-18T09:58:49.387Z,12.74
2023-03-18T10:01:22.273Z,12.77
2023-03-18T10:03:54.874Z,12.81
2023-03-18T10:06:24.895Z,12.83
2023-03-18T10:09:02.300Z,12.87
2023-03-18T10:11:33.339Z,12.89
2023-03-18T10:14:20.530Z,12.94
2023-03-18T10:17:04.822Z,12.98
2023-03-18T10:19:34.326Z,13.02
2023-03-18T10:22:23.378Z,13.08
2023-03-18T10:25:00.641Z,13.13
2023-03-18T10:27:45.756Z,13.17
2023-03-18T10:30:31.254Z,13.23
2023-03-18T10:33:08.148Z,13.26
2023-03-18T10:35:43.352Z,13.33
2023-03-18T10:38:19.117Z,13.38
2023-03-18T10:40:48.165Z,13.40
2023-03-18T10:43:19.517Z,13.49
2023-03-18T10:45:49.887Z,13.55
2023-03-18T10:48:24.786Z,13.61
2023-03-18T10:51:03.522Z,13.65
2023-03-18T10:53:39.077Z,13.71
2023-03-18T10:56:09.043Z,13.78
2023-03-18T10:58:39.016Z,13.82
2023-03-18T11:01:08.781Z,13.89
2023-03-18T11:03:44.152Z,13.95
2023-03-18T11:06:18.953Z,14.01
2023-03-18T11:08:49.761Z,14.08
2023-03-18T11:11:26.890Z,14.12
2023-03-18T11:13:58.164Z,14.17
2023-03-18T11:16:30.956Z,14.24
2023-03-18T11:19:01.211Z,14.29
2023-03-18T11:21:29.959Z,14.35
2023-03-18T11:24:21.001Z,14.41
2023-03-18T11:26:54.496Z,14.48
2023-03-18T11:29:27.743Z,14.54
2023-03-18T11:31:58.419Z,14.62
2023-03-18T11:34:29.589Z,14.67
2023-03-18T11:37:01.283Z,14.72
2023-03-18T11:39:32.357Z,14.80
2023-03-18T11:42:01.733Z,14.85
2023-03-18T11:44:32.136Z,14.94
2023-03-18T11:47:05.365Z,14.99
2023-03-18T11:49:35.391Z,15.03
2023-03-18T11:52:15.931Z,15.12
2023-03-18T11:55:04.289Z,15.18
2023-03-18T11:57:41.659Z,15.21
2023-03-18T12:00:45.806Z,15.30
2023-03-18T12:04:02.201Z,15.39
2023-03-18T12:06:35.990Z,15.43
2023-03-18T12:09:12.268Z,15.50
2023-03-18T12:11:57.800Z,15.59
2023-03-18T12:14:35.642Z,15.66
2023-03-18T12:17:17.496Z,15.73
2023-03-18T12:20:22.479Z,15.81
2023-03-18T12:23:04.442Z,15.84
2023-03-18T12:25:44.553Z,15.93
2023-03-18T12:28:22.895Z,15.98
2023-03-18T12:31:02.980Z,16.03
2023-03-18T12:33:45.253Z,16.11
2023-03-18T12:36:23.009Z,16.18
2023-03-18T12:39:25.056Z,16.25
2023-03-18T12:42:02.911Z,16.27
2023-03-18T12:44:46.747Z,16.34
2023-03-18T12:47:20.934Z,16.43
2023-03-18T12:49:53.385Z,16.51
2023-03-18T12:52:31.190Z,16.56
2023-03-18T12:55:07.642Z,16.65
2023-03-18T12:57:44.537Z,16.73
2023-03-18T13:00:24.837Z,16.79
2023-03-18T13:03:06.925Z,16.86
2023-03-18T13:05:49.641Z,16.94
2023-03-18T13:08:43.063Z,16.95
2023-03-18T13:11:27.212Z,17.07
2023-03-18T13:14:01.285Z,17.13
2023-03-18T13:16:31.347Z,17.15
2023-03-18T13:19:04.135Z,17.25
2023-03-18T13:21:35.164Z,17.30
2023-03-18T13:24:37.642Z,17.35
2023-03-18T13:27:28.625Z,17.38
2023-03-18T13:30:06.228Z,17.40
2023-03-18T13:32:56.340Z,17.42
2023-03-18T13:35:50.701Z,17.49
2023-03-18T13:38:33.955Z,17.49
2023-03-18T13:41:16.647Z,17.57
2023-03-18T13:43:49.494Z,17.58
2023-03-18T13:46:22.243Z,17.66
2023-03-18T13:48:57.016Z,17.69
2023-03-18T13:51:50.908Z,17.73
2023-03-18T13:54:21.510Z,17.76
2023-03-18T13:56:55.659Z,17.79
2023-03-18T13:59:48.833Z,17.85
2023-03-18T14:02:34.123Z,17.89
2023-03-18T14:05:02.706Z,17.91
2023-03-18T14:07:30.777Z,17.92
2023-03-18T14:10:20.448Z,17.93
2023-03-18T14:12:49.317Z,17.96
2023-03-18T14:15:44.488Z,17.97
2023-03-18T14:18:27.895Z,17.99
2023-03-18T14:20:56.976Z,18.02
2023-03-18T14:23:39.527Z,18.05
2023-03-18T14:26:19.268Z,18.05
2023-03-18T14:28:49.680Z,18.10
2023-03-18T14:31:32.468Z,18.12
2023-03-18T14:34:23.167Z,18.15
2023-03-18T14:37:21.082Z,18.12
2023-03-18T14:39:52.970Z,18.18
2023-03-18T14:42:39.001Z,18.18
2023-03-18T14:45:14.038Z,18.19
2023-03-18T14:47:46.730Z,18.21
2023-03-18T14:50:23.203Z,18.22
2023-03-18T14:52:57.481Z,18.23
2023-03-18T14:55:31.154Z,18.27
2023-03-18T14:57:59.628Z,18.31
2023-03-18T15:00:31.223Z,18.34
2023-03-18T15:03:05.830Z,18.37
2023-03-18T15:05:36.918Z,18.41
2023-03-18T15:08:10.711Z,18.41
2023-03-18T15:10:39.147Z,18.43
2023-03-18T15:13:11.756Z,18.45
2023-03-18T15:15:41.379Z,18.45
2023-03-18T15:18:20.077Z,18.48
2023-03-18T15:20:51.214Z,18.48
2023-03-18T15:23:25.117Z,18.54
2023-03-18T15:25:54.285Z,18.57
2023-03-18T15:28:25.218Z,18.58
2023-03-18T15:30:55.960Z,18.61
2023-03-18T15:33:30.210Z,18.62
2023-03-18T15:36:05.900Z,18.64
2023-03-18T15:38:34.788Z,18.66
2023-03-18T15:41:05.560Z,18.66
2023-03-18T15:43:40.701Z,18.66
2023-03-18T15:46:17.426Z,18.65
2023-03-18T15:48:54.605Z,18.64
2023-03-18T15:51:27.710Z,18.62
2023-03-18T15:53:58.125Z,18.62
2023-03-18T15:56:29.675Z,18.63
2023-03-18T15:59:07.128Z,18.61
2023-03-18T16:01:36.346Z,18.64
2023-03-18T16:04:10.332Z,18.63
2023-03-18T16:06:38.718Z,18.65
2023-03-18T16:09:15.746Z,18.65
2023-03-18T16:11:45.504Z,18.65
2023-03-18T16:14:17.414Z,18.63
2023-03-18T16:16:45.548Z,18.62
2023-03-18T16:19:25.057Z,18.62
2023-03-18T16:21:53.709Z,18.61
2023-03-18T16:24:25.600Z,18.59
2023-03-18T16:26:55.166Z,18.61
2023-03-18T16:29:28.899Z,18.61
2023-03-18T16:31:57.348Z,18.59
2023-03-18T16:34:27.809Z,18.56
2023-03-18T16:36:56.456Z,18.54
2023-03-18T16:39:27.295Z,18.50
2023-03-18T16:41:56.463Z,18.48
2023-03-18T16:44:24.706Z,18.46
2023-03-18T16:46:55.396Z,18.44
2023-03-18T16:49:27.489Z,18.40
2023-03-18T16:51:56.979Z,18.38
2023-03-18T16:54:27.544Z,18.33
2023-03-18T16:56:58.940Z,18.33
2023-03-18T16:59:32.493Z,18.28
2023-03-18T17:02:00.769Z,18.26
2023-03-18T17:04:32.343Z,18.25
2023-03-18T17:07:03.630Z,18.22
2023-03-18T17:09:33.816Z,18.18
2023-03-18T17:12:05.440Z,18.15
2023-03-18T17:14:37.569Z,18.14
2023-03-18T17:17:09.990Z,18.12
2023-03-18T17:19:40.049Z,18.10
2023-03-18T17:22:20.910Z,18.08
2023-03-18T17:24:49.458Z,18.05
2023-03-18T17:27:20.710Z,18.02
2023-03-18T17:29:49.185Z,17.99
2023-03-18T17:32:19.391Z,17.97
2023-03-18T17:34:50.502Z,17.93
2023-03-18T17:37:19.010Z,17.89
2023-03-18T17:39:47.218Z,17.86
2023-03-18T17:42:29.651Z,17.86
2023-03-18T17:45:04.986Z,17.83
2023-03-18T17:47:33.321Z,17.79
2023-03-18T17:50:04.817Z,17.77
2023-03-18T17:52:34.031Z,17.74
2023-03-18T17:55:02.150Z,17.71
2023-03-18T17:57:30.337Z,17.69
2023-03-18T17:59:58.472Z,17.66
2023-03-18T18:02:26.634Z,17.63
2023-03-18T18:04:54.723Z,17.60
2023-03-18T18:07:28.631Z,17.58
2023-03-18T18:09:58.827Z,17.55
2023-03-18T18:12:28.828Z,17.54
2023-03-18T18:14:57.199Z,17.48
2023-03-18T18:17:25.831Z,17.47
2023-03-18T18:19:54.664Z,17.44
2023-03-18T18:22:26.436Z,17.41
2023-03-18T18:24:57.773Z,17.39
2023-03-18T18:27:25.911Z,17.37
2023-03-18T18:29:54.464Z,17.34
2023-03-18T18:32:24.775Z,17.31
2023-03-18T18:34:53.402Z,17.30
2023-03-18T18:37:21.859Z,17.25
2023-03-18T18:39:49.995Z,17.24
2023-03-18T18:42:19.384Z,17.22
2023-03-18T18:44:47.554Z,17.19
2023-03-18T18:47:18.901Z,17.15
2023-03-18T18:49:47.756Z,17.13
2023-03-18T18:52:16.175Z,17.12
2023-03-18T18:54:45.026Z,17.06
2023-03-18T18:57:28.334Z,17.06
2023-03-18T18:59:56.700Z,17.04
2023-03-18T19:02:33.734Z,17.02
2023-03-18T19:05:04.723Z,17.00
2023-03-18T19:07:34.185Z,16.98
2023-03-18T19:10:02.292Z,16.94
2023-03-18T19:12:31.946Z,16.93
2023-03-18T19:15:00.396Z,16.91
2023-03-18T19:17:28.600Z,16.88
2023-03-18T19:19:56.795Z,16.87
2023-03-18T19:22:25.477Z,16.84
2023-03-18T19:24:53.973Z,16.81
2023-03-18T19:27:25.500Z,16.80
2023-03-18T19:29:57.414Z,16.77
2023-03-18T19:32:27.080Z,16.76
2023-03-18T19:34:56.079Z,16.73
2023-03-18T19:37:27.362Z,16.72
2023-03-18T19:39:55.994Z,16.67
2023-03-18T19:42:24.313Z,16.68
2023-03-18T19:44:52.412Z,16.65
2023-03-18T19:47:24.366Z,16.62
2023-03-18T19:49:52.609Z,16.62
2023-03-18T19:52:22.977Z,16.58
2023-03-18T19:54:52.456Z,16.57
2023-03-18T19:57:24.954Z,16.54
2023-03-18T19:59:55.233Z,16.51
2023-03-18T20:02:27.416Z,16.48
2023-03-18T20:04:57.607Z,16.49
2023-03-18T20:07:27.457Z,16.44
2023-03-18T20:09:56.282Z,16.44
2023-03-18T20:12:27.360Z,16.42
2023-03-18T20:14:55.446Z,16.40
2023-03-18T20:17:35.076Z,16.37
2023-03-18T20:20:03.794Z,16.35
2023-03-18T20:22:34.602Z,16.34
2023-03-18T20:25:03.931Z,16.33
2023-03-18T20:27:32.361Z,16.30
2023-03-18T20:30:00.940Z,16.28
2023-03-18T20:32:29.373Z,16.24
2023-03-18T20:34:58.896Z,16.22
2023-03-18T20:37:34.068Z,16.19
2023-03-18T20:40:03.791Z,16.15
2023-03-18T20:42:33.029Z,16.13
2023-03-18T20:45:01.462Z,16.13
2023-03-18T20:47:29.681Z,16.11
2023-03-18T20:49:59.531Z,16.09
2023-03-18T20:52:30.493Z,16.08
2023-03-18T20:54:58.956Z,16.05
2023-03-18T20:57:27.389Z,16.05
2023-03-18T20:59:56.038Z,16.01
2023-03-18T21:02:30.693Z,15.99
2023-03-18T21:05:01.716Z,15.99
2023-03-18T21:07:30.896Z,15.96
2023-03-18T21:09:59.194Z,15.95
2023-03-18T21:12:27.405Z,15.91
2023-03-18T21:14:56.059Z,15.90
2023-03-18T21:17:26.528Z,15.89
2023-03-18T21:20:04.987Z,15.86
2023-03-18T21:22:41.009Z,15.86
2023-03-18T21:25:22.923Z,15.84
2023-03-18T21:27:52.526Z,15.83
2023-03-18T21:30:23.927Z,15.81
2023-03-18T21:32:52.590Z,15.78
2023-03-18T21:35:23.100Z,15.78
2023-03-18T21:37:53.869Z,15.74
2023-03-18T21:40:23.866Z,15.74
2023-03-18T21:42:53.086Z,15.72
2023-03-18T21:45:24.269Z,15.67
2023-03-18T21:47:53.217Z,15.70
2023-03-18T21:50:23.986Z,15.68
2023-03-18T21:52:54.141Z,15.66
2023-03-18T21:55:23.222Z,15.64
2023-03-18T21:57:51.967Z,15.64
2023-03-18T22:00:22.376Z,15.62
2023-03-18T22:02:50.695Z,15.60
2023-03-18T22:05:20.611Z,15.56
2023-03-18T22:07:50.332Z,15.58
2023-03-18T22:10:22.404Z,15.56
2023-03-18T22:12:50.852Z,15.53
2023-03-18T22:15:38.254Z,15.53
2023-03-18T22:18:07.759Z,15.49
2023-03-18T22:20:37.213Z,15.48
2023-03-18T22:23:13.604Z,15.46
2023-03-18T22:25:43.827Z,15.47
2023-03-18T22:28:12.921Z,15.44
2023-03-18T22:30:43.167Z,15.43
2023-03-18T22:33:19.805Z,15.42
2023-03-18T22:35:48.248Z,15.39
2023-03-18T22:38:17.635Z,15.39
2023-03-18T22:40:48.832Z,15.36
2023-03-18T22:43:26.953Z,15.36
2023-03-18T22:45:55.040Z,15.34
2023-03-18T22:48:23.149Z,15.32
2023-03-18T22:50:53.649Z,15.33
2023-03-18T22:53:23.677Z,15.31
2023-03-18T22:55:55.488Z,15.30
2023-03-18T22:58:25.151Z,15.27
2023-03-18T23:00:53.928Z,15.27
2023-03-18T23:03:24.031Z,15.26
2023-03-18T23:05:54.791Z,15.21
2023-03-18T23:08:23.500Z,15.23
2023-03-18T23:10:54.814Z,15.20
2023-03-18T23:13:30.222Z,15.18
2023-03-18T23:15:59.192Z,15.14
2023-03-18T23:18:28.207Z,15.16
2023-03-18T23:20:56.712Z,15.12
2023-03-18T23:23:25.151Z,15.10
2023-03-18T23:25:54.875Z,15.12
2023-03-18T23:28:22.985Z,15.06
2023-03-18T23:30:53.441Z,15.07
2023-03-18T23:33:21.861Z,15.07
2023-03-18T23:35:49.991Z,15.07
2023-03-18T23:38:18.489Z,15.04
2023-03-18T23:40:47.774Z,15.03
2023-03-18T23:43:17.523Z,15.03
2023-03-18T23:45:45.766Z,15.00
2023-03-18T23:48:15.602Z,14.97
2023-03-18T23:50:43.649Z,14.98
2023-03-18T23:53:12.371Z,14.97
2023-03-18T23:55:40.613Z,14.95
2023-03-18T23:58:08.964Z,14.91
